Time;durP1;ratioP1;P1;durP2;ratioP2;P2;SDS_P1;SDS_P2;PMS_P1;PMS_P2;Temp;Humidity;BMP_temperature;BMP_pressure;BME280_temperature;BME280_humidity;BME280_pressure;Samples;Min_cycle;Max_cycle;Signal;HPM_P1;HPM_P2
2021/12/23 00:02:20;;;;;;;10.80;6.67;;;;;;;-1.36;72.73;95379.63;5031687;28;20686;-64
2021/12/23 00:04:46;;;;;;;10.80;5.87;;;;;;;-1.41;72.48;95393.88;5031446;28;20187;-63
2021/12/23 00:07:11;;;;;;;8.97;5.40;;;;;;;-1.46;72.58;95393.19;5013687;28;20215;-63
2021/12/23 00:12:16;;;;;;;9.13;5.47;;;;;;;-1.48;72.36;95404.88;5031296;28;20212;-63
2021/12/23 00:14:42;;;;;;;9.23;5.00;;;;;;;-1.52;72.24;95400.84;5031066;28;20180;-63
2021/12/23 00:17:27;;;;;;;10.77;5.77;;;;;;;-1.41;70.83;95426.28;5031135;28;20213;-63
2021/12/23 00:25:23;;;;;;;9.63;5.17;;;;;;;-1.76;71.82;95404.78;5031435;28;20191;-67
2021/12/23 00:27:48;;;;;;;10.93;5.53;;;;;;;-1.82;71.40;95420.69;5031507;28;20191;-60
2021/12/23 00:30:14;;;;;;;8.43;5.20;;;;;;;-2.00;71.95;95405.41;5031035;28;20637;-60
2021/12/23 00:32:49;;;;;;;10.70;5.77;;;;;;;-2.04;72.46;95399.66;5031304;28;20198;-63
2021/12/23 00:35:14;;;;;;;8.70;5.23;;;;;;;-1.94;71.89;95410.22;5031215;28;20224;-61
2021/12/23 00:37:43;;;;;;;7.87;5.07;;;;;;;-2.23;73.85;95376.06;5031602;28;20279;-63
2021/12/23 00:40:12;;;;;;;9.33;4.63;;;;;;;-2.20;73.31;95388.44;5029683;28;20185;-63
2021/12/23 00:42:38;;;;;;;10.63;4.93;;;;;;;-2.15;72.07;95414.03;5029709;28;20202;-63
2021/12/23 00:45:05;;;;;;;8.17;4.70;;;;;;;-2.21;72.95;95404.22;5030917;28;20187;-63
2021/12/23 00:47:31;;;;;;;7.50;4.40;;;;;;;-2.15;73.02;95405.75;5029556;28;20650;-64
2021/12/23 00:49:57;;;;;;;8.70;4.63;;;;;;;-2.20;72.54;95408.34;5029544;28;20577;-64
2021/12/23 00:52:35;;;;;;;10.50;5.10;;;;;;;-2.40;72.60;95399.72;5031124;28;20742;-59
2021/12/23 00:55:03;;;;;;;11.73;4.80;;;;;;;-2.54;73.43;95386.78;5030769;28;20618;-63
2021/12/23 00:57:30;;;;;;;11.33;5.00;;;;;;;-2.73;74.02;95372.22;5031158;28;20276;-63
2021/12/23 00:59:58;;;;;;;11.83;5.90;;;;;;;-2.88;74.29;95374.25;5029433;28;20205;-60
2021/12/23 01:02:28;;;;;;;7.00;4.83;;;;;;;-2.91;74.08;95369.34;5029545;28;20206;-64
2021/12/23 01:04:53;;;;;;;11.63;5.07;;;;;;;-2.95;74.68;95352.88;5029554;28;20184;-63
2021/12/23 01:07:19;;;;;;;8.17;5.13;;;;;;;-3.08;73.79;95371.38;5030877;28;20272;-63
2021/12/23 01:09:45;;;;;;;7.60;4.00;;;;;;;-3.21;74.50;95353.41;5030718;28;20176;-61
2021/12/23 01:12:12;;;;;;;9.77;5.03;;;;;;;-3.18;75.49;95342.59;5030902;28;20592;-63
2021/12/23 01:19:50;;;;;;;10.43;4.67;;;;;;;-3.08;74.77;95362.25;5030874;28;20183;-63
2021/12/23 01:22:16;;;;;;;7.47;3.80;;;;;;;-3.16;74.26;95366.56;5031002;28;20216;-63
2021/12/23 01:24:42;;;;;;;11.03;4.20;;;;;;;-3.45;74.50;95368.81;5030655;28;20213;-63
2021/12/23 01:27:07;;;;;;;7.97;3.70;;;;;;;-3.73;74.92;95352.78;5030610;28;20293;-63
2021/12/23 01:29:33;;;;;;;6.20;3.87;;;;;;;-3.81;75.67;95334.75;5032868;28;20177;-64
2021/12/23 01:32:02;;;;;;;7.10;3.90;;;;;;;-3.79;76.05;95318.97;5034380;28;20270;-60
2021/12/23 01:34:28;;;;;;;6.30;4.07;;;;;;;-3.75;75.73;95324.69;5034024;28;20187;-63
2021/12/23 01:36:54;;;;;;;6.17;3.37;;;;;;;-3.79;75.47;95338.00;5032723;28;20234;-63
2021/12/23 01:39:19;;;;;;;8.90;4.00;;;;;;;-3.92;76.20;95332.44;5034037;28;20179;-63
2021/12/23 01:41:45;;;;;;;8.60;4.50;;;;;;;-3.87;76.39;95324.91;5032688;28;20237;-63
2021/12/23 01:44:11;;;;;;;7.83;3.77;;;;;;;-3.94;75.88;95324.22;5033021;28;20185;-62
2021/12/23 01:46:36;;;;;;;9.73;4.20;;;;;;;-3.92;76.70;95322.50;5033812;28;20199;-60
2021/12/23 01:49:02;;;;;;;5.70;3.60;;;;;;;-3.83;76.13;95326.50;5033799;28;20643;-64
2021/12/23 01:51:27;;;;;;;10.73;4.30;;;;;;;-3.82;76.92;95314.06;5032337;28;20262;-64
2021/12/23 01:53:53;;;;;;;7.20;3.90;;;;;;;-3.85;77.26;95304.19;5032448;28;20239;-62
2021/12/23 01:56:19;;;;;;;8.73;4.40;;;;;;;-3.77;76.47;95323.91;5032256;28;20226;-64
2021/12/23 01:58:45;;;;;;;6.73;3.50;;;;;;;-3.70;76.03;95328.75;5034051;28;20574;-61
2021/12/23 02:01:11;;;;;;;6.07;3.63;;;;;;;-3.62;76.70;95317.00;5033545;28;20687;-61
2021/12/23 02:03:38;;;;;;;8.30;3.87;;;;;;;-3.51;76.51;95334.97;5033521;28;20261;-61
2021/12/23 02:06:04;;;;;;;7.73;4.27;;;;;;;-3.46;75.80;95337.38;5033452;28;20805;-61
2021/12/23 02:08:30;;;;;;;8.20;4.00;;;;;;;-3.39;75.68;95348.81;5032305;28;20344;-62
2021/12/23 02:10:58;;;;;;;5.60;3.87;;;;;;;-3.31;74.26;95373.53;5033404;28;20222;-63
2021/12/23 02:13:23;;;;;;;6.37;3.60;;;;;;;-3.14;73.77;95389.72;5032422;28;20198;-63
2021/12/23 02:15:49;;;;;;;5.93;3.80;;;;;;;-3.25;74.72;95360.97;5031738;28;20226;-60
2021/12/23 02:18:15;;;;;;;9.10;3.77;;;;;;;-3.32;75.49;95359.44;5033254;28;20193;-61
2021/12/23 02:20:40;;;;;;;7.73;3.90;;;;;;;-3.26;75.14;95365.13;5033279;28;20705;-64
2021/12/23 02:23:09;;;;;;;6.60;3.90;;;;;;;-3.19;74.96;95360.84;5032116;28;20570;-60
2021/12/23 02:25:35;;;;;;;8.73;3.60;;;;;;;-3.20;74.88;95365.00;5033208;28;20255;-64
2021/12/23 02:28:07;;;;;;;7.67;4.03;;;;;;;-2.86;73.17;95392.44;5032000;28;20633;-64
2021/12/23 02:30:35;;;;;;;6.00;4.10;;;;;;;-2.92;72.62;95400.03;5031826;28;20209;-62
2021/12/23 02:33:00;;;;;;;6.47;3.87;;;;;;;-2.97;72.74;95399.31;5033390;28;20185;-63
2021/12/23 02:35:26;;;;;;;7.07;3.50;;;;;;;-2.98;73.29;95387.72;5031345;28;20210;-64
2021/12/23 02:37:52;;;;;;;13.40;4.00;;;;;;;-2.99;72.04;95403.50;5031731;28;20180;-59
2021/12/23 02:40:39;;;;;;;6.47;3.17;;;;;;;-3.23;74.56;95361.75;5030295;28;20188;-65
2021/12/23 02:43:20;;;;;;;5.93;4.07;;;;;;;-3.16;75.36;95354.13;5033133;28;20228;-64
2021/12/23 02:45:48;;;;;;;11.23;4.53;;;;;;;-2.97;73.67;95387.69;5032549;28;20199;-64
2021/12/23 02:48:23;;;;;;;8.27;3.43;;;;;;;-2.78;72.75;95403.03;5032473;28;20193;-63
2021/12/23 02:50:51;;;;;;;5.63;3.33;;;;;;;-2.95;73.04;95397.63;5032863;28;20206;-63
2021/12/23 02:53:17;;;;;;;7.20;3.37;;;;;;;-3.19;73.97;95383.22;5033090;28;20333;-64
2021/12/23 02:55:43;;;;;;;5.30;2.87;;;;;;;-3.26;74.05;95371.75;5038353;22;20714;-64
2021/12/23 02:58:09;;;;;;;5.33;3.30;;;;;;;-3.34;73.67;95371.09;5032377;28;20243;-60
2021/12/23 03:00:36;;;;;;;7.37;3.53;;;;;;;-3.28;73.76;95369.31;5032434;28;20208;-63
2021/12/23 03:03:02;;;;;;;8.47;4.63;;;;;;;-3.70;73.77;95365.16;5032317;28;20190;-61
2021/12/23 03:05:28;;;;;;;7.00;4.70;;;;;;;-3.86;75.31;95339.81;5032216;28;20631;-62
2021/12/23 03:07:53;;;;;;;13.23;5.50;;;;;;;-3.98;76.04;95322.63;5030890;28;20208;-59
2021/12/23 03:10:22;;;;;;;12.20;6.40;;;;;;;-4.13;76.95;95305.53;5032032;28;20273;-60
2021/12/23 03:12:48;;;;;;;9.73;4.10;;;;;;;-4.10;76.29;95331.97;5030611;28;20185;-63
2021/12/23 03:15:13;;;;;;;6.27;3.83;;;;;;;-4.17;76.10;95328.78;5031804;28;20224;-64
2021/12/23 03:17:39;;;;;;;9.53;3.80;;;;;;;-4.36;75.15;95340.69;5032164;28;20277;-63
2021/12/23 03:20:05;;;;;;;5.60;3.43;;;;;;;-4.33;76.19;95307.56;5030750;28;20177;-63
2021/12/23 03:22:31;;;;;;;7.77;3.90;;;;;;;-4.27;77.16;95302.50;5032385;28;20190;-63
2021/12/23 03:24:57;;;;;;;6.67;3.87;;;;;;;-4.24;76.97;95307.38;5031848;28;20699;-64
2021/12/23 03:27:22;;;;;;;10.03;3.70;;;;;;;-4.11;75.86;95323.72;5030673;28;20589;-59
2021/12/23 03:29:48;;;;;;;6.50;3.33;;;;;;;-4.06;75.77;95326.91;5032042;28;20291;-64
2021/12/23 03:32:13;;;;;;;6.50;3.70;;;;;;;-4.01;74.94;95346.69;5032157;28;20233;-64
2021/12/23 03:34:39;;;;;;;4.77;3.40;;;;;;;-3.88;75.18;95340.69;5031651;28;20184;-64
2021/12/23 03:37:04;;;;;;;5.83;3.37;;;;;;;-3.92;75.66;95322.50;5031690;28;20202;-61
2021/12/23 03:39:30;;;;;;;5.00;3.30;;;;;;;-3.86;76.05;95322.44;5031908;28;20197;-63
2021/12/23 03:41:56;;;;;;;6.03;3.40;;;;;;;-3.76;74.61;95347.91;5031913;28;20191;-61
2021/12/23 03:44:22;;;;;;;5.20;3.20;;;;;;;-3.66;73.98;95360.13;5031676;28;20627;-61
2021/12/23 03:46:47;;;;;;;4.80;3.40;;;;;;;-3.81;75.24;95335.56;5031900;28;20205;-60
2021/12/23 03:49:13;;;;;;;9.80;4.03;;;;;;;-3.83;75.84;95331.47;5031639;28;20197;-62
2021/12/23 03:51:38;;;;;;;6.17;3.57;;;;;;;-3.79;75.01;95348.75;5031472;28;20196;-63
2021/12/23 03:54:04;;;;;;;6.03;3.37;;;;;;;-3.70;73.54;95373.44;5031388;28;20197;-59
2021/12/23 03:56:30;;;;;;;9.47;3.60;;;;;;;-3.77;73.70;95371.06;5029896;28;20602;-64
2021/12/23 03:58:56;;;;;;;7.23;3.13;;;;;;;-3.79;73.62;95368.63;5030147;28;20186;-64
2021/12/23 04:01:27;;;;;;;7.50;3.17;;;;;;;-3.85;73.26;95368.75;5031624;28;20291;-63
2021/12/23 04:03:53;;;;;;;6.30;3.57;;;;;;;-3.91;72.66;95385.41;5029928;28;20190;-63
2021/12/23 04:06:21;;;;;;;7.80;3.67;;;;;;;-4.04;73.85;95357.50;5031568;28;20202;-62
2021/12/23 04:08:48;;;;;;;5.33;3.23;;;;;;;-4.10;74.40;95346.88;5031217;28;20177;-62
2021/12/23 04:11:14;;;;;;;6.80;3.03;;;;;;;-4.02;72.93;95377.34;5029806;28;20198;-63
2021/12/23 04:13:39;;;;;;;7.27;3.23;;;;;;;-4.18;74.49;95354.44;5031248;28;20186;-63
2021/12/23 04:16:05;;;;;;;6.23;3.57;;;;;;;-4.07;73.80;95371.63;5030568;23;20231;-61
2021/12/23 04:18:31;;;;;;;4.27;3.00;;;;;;;-4.24;74.46;95357.00;5011505;28;20216;-60
2021/12/23 04:20:57;;;;;;;7.53;4.23;;;;;;;-3.95;73.77;95377.19;5011545;28;20307;-65
2021/12/23 04:23:24;;;;;;;4.03;3.00;;;;;;;-3.79;73.26;95393.47;5011533;28;20174;-63
2021/12/23 04:25:50;;;;;;;7.27;3.30;;;;;;;-3.69;72.67;95399.91;5011615;28;20221;-64
2021/12/23 04:28:16;;;;;;;4.03;3.23;;;;;;;-3.77;72.37;95405.84;5011526;28;20186;-63
2021/12/23 04:30:42;;;;;;;6.63;3.50;;;;;;;-3.97;72.76;95395.44;5011295;28;20650;-64
2021/12/23 04:33:08;;;;;;;6.93;3.30;;;;;;;-3.96;73.43;95374.75;5011410;28;20272;-64
2021/12/23 04:35:34;;;;;;;6.40;3.70;;;;;;;-3.96;73.39;95387.97;5009815;28;20237;-63
2021/12/23 04:37:59;;;;;;;5.80;3.53;;;;;;;-4.17;74.17;95373.44;5010075;28;20636;-62
2021/12/23 04:40:24;;;;;;;8.00;3.93;;;;;;;-4.23;74.35;95363.63;5011142;28;20249;-63
2021/12/23 04:42:50;;;;;;;5.30;3.47;;;;;;;-4.13;74.00;95380.00;5011152;28;20233;-64
2021/12/23 04:45:16;;;;;;;7.07;3.67;;;;;;;-4.36;73.61;95375.41;5011277;28;20185;-60
2021/12/23 04:47:42;;;;;;;8.80;4.33;;;;;;;-4.46;74.72;95353.25;5011518;28;20200;-62
2021/12/23 04:50:16;;;;;;;6.17;4.17;;;;;;;-4.60;74.72;95360.09;5011311;28;20179;-60
2021/12/23 04:52:43;;;;;;;6.67;3.30;;;;;;;-4.59;74.67;95361.75;5011141;28;20171;-65
2021/12/23 04:55:11;;;;;;;4.97;3.40;;;;;;;-4.54;75.44;95347.59;5011428;28;20297;-64
2021/12/23 04:57:36;;;;;;;10.53;3.57;;;;;;;-4.28;74.52;95370.31;5011313;28;20193;-64
2021/12/23 05:00:08;;;;;;;4.80;3.37;;;;;;;-4.29;74.11;95386.88;5011065;28;20716;-62
2021/12/23 05:02:33;;;;;;;4.97;3.30;;;;;;;-4.55;74.25;95383.16;5011867;28;20208;-64
2021/12/23 05:04:59;;;;;;;8.87;3.70;;;;;;;-4.58;74.00;95380.72;5014742;28;20182;-64
2021/12/23 05:07:24;;;;;;;5.97;3.30;;;;;;;-4.62;74.75;95366.72;5015328;28;20211;-64
2021/12/23 05:09:49;;;;;;;5.83;3.37;;;;;;;-4.68;74.33;95366.81;5033991;22;20257;-64
2021/12/23 05:12:15;;;;;;;5.87;3.93;;;;;;;-2.88;100.00;95344.41;5034443;28;20206;-64
2021/12/23 05:14:41;;;;;;;5.40;3.60;;;;;;;-3.23;100.00;95389.09;5042050;22;20222;-65
2021/12/23 05:17:06;;;;;;;7.77;3.80;;;;;;;-3.65;91.83;95503.31;5034386;28;20216;-64
2021/12/23 05:19:32;;;;;;;7.47;4.07;;;;;;;-3.91;89.31;95505.41;5034535;28;20188;-61
2021/12/23 05:21:57;;;;;;;6.30;3.90;;;;;;;-4.15;90.55;95478.47;5034262;28;20254;-63
2021/12/23 05:24:23;;;;;;;7.77;4.53;;;;;;;-4.15;88.99;95488.41;5034493;28;20194;-64
2021/12/23 05:26:48;;;;;;;7.27;4.13;;;;;;;-4.14;87.73;95507.41;5032832;28;20220;-63
2021/12/23 05:29:14;;;;;;;5.20;3.47;;;;;;;-4.54;88.65;95474.06;5033098;28;20193;-63
2021/12/23 05:31:40;;;;;;;7.27;3.63;;;;;;;-4.64;89.39;95458.50;5033901;28;20195;-60
2021/12/23 05:34:06;;;;;;;10.70;3.87;;;;;;;-4.80;89.38;95452.13;5034286;28;20340;-63
2021/12/23 05:36:32;;;;;;;5.87;3.30;;;;;;;-4.90;90.81;95437.38;5034011;28;20221;-63
2021/12/23 05:38:57;;;;;;;6.37;3.40;;;;;;;-5.00;90.83;95429.25;5034214;28;20282;-64
2021/12/23 05:41:26;;;;;;;9.13;4.13;;;;;;;-5.18;91.68;95425.34;5034004;28;20227;-63
2021/12/23 05:43:57;;;;;;;7.70;4.50;;;;;;;-5.18;92.83;95410.50;5033977;28;20273;-63
2021/12/23 05:46:22;;;;;;;7.23;4.17;;;;;;;-5.06;96.41;95366.56;5033599;28;20213;-63
2021/12/23 05:48:48;;;;;;;7.00;3.80;;;;;;;-4.95;93.47;95419.28;5033922;28;20190;-65
2021/12/23 05:51:13;;;;;;;7.67;4.83;;;;;;;-4.86;92.73;95416.66;5032269;28;20209;-64
2021/12/23 05:53:39;;;;;;;10.37;4.43;;;;;;;-4.91;91.62;95439.06;5033745;28;20194;-64
2021/12/23 05:56:05;;;;;;;9.33;5.17;;;;;;;-4.96;91.49;95438.28;5033703;28;20316;-63
2021/12/23 05:58:31;;;;;;;7.70;4.43;;;;;;;-5.16;92.09;95423.69;5033587;28;20529;-63
2021/12/23 06:00:57;;;;;;;5.53;3.83;;;;;;;-5.26;93.27;95419.66;5033379;28;20204;-64
2021/12/23 06:03:23;;;;;;;7.50;3.87;;;;;;;-5.11;93.70;95391.41;5033405;28;20178;-65
2021/12/23 06:05:48;;;;;;;6.03;3.73;;;;;;;-4.96;92.64;95420.09;5032076;28;20212;-64
2021/12/23 06:08:14;;;;;;;9.33;4.53;;;;;;;-4.81;92.65;95410.81;5033584;28;20647;-63
2021/12/23 06:10:39;;;;;;;9.40;4.30;;;;;;;-4.64;91.79;95438.66;5033480;28;20205;-60
2021/12/23 06:13:05;;;;;;;8.47;5.50;;;;;;;-4.46;91.80;95438.41;5033117;28;20243;-63
2021/12/23 06:15:30;;;;;;;6.73;4.30;;;;;;;-4.52;89.38;95477.34;5033491;28;20229;-64
2021/12/23 06:17:55;;;;;;;8.13;3.70;;;;;;;-4.71;88.81;95474.31;5033126;28;20181;-64
2021/12/23 06:20:21;;;;;;;8.57;4.40;;;;;;;-4.93;90.46;95430.81;5033258;28;20188;-64
2021/12/23 06:22:46;;;;;;;9.57;4.50;;;;;;;-4.85;91.26;95443.94;5031789;28;20280;-64
2021/12/23 06:25:12;;;;;;;9.03;4.23;;;;;;;-4.89;90.87;95439.88;5033585;28;20255;-61
2021/12/23 06:27:39;;;;;;;8.43;3.70;;;;;;;-5.03;91.05;95449.13;5033567;28;20200;-61
2021/12/23 06:30:40;;;;;;;9.37;4.73;;;;;;;-5.21;92.98;95422.06;5033024;28;20297;-61
2021/12/23 06:32:59;;;;;;;8.90;4.17;;;;;;;-5.33;91.46;95452.75;5030788;28;20697;-64
2021/12/23 06:35:30;;;;;;;11.17;4.40;;;;;;;-5.35;91.57;95429.66;5032766;28;20295;-65
2021/12/23 06:37:56;;;;;;;7.60;3.80;;;;;;;-5.48;92.81;95410.84;5033166;28;20227;-63
2021/12/23 06:40:22;;;;;;;7.10;3.77;;;;;;;-5.36;93.01;95430.53;5032838;28;20303;-63
2021/12/23 06:42:49;;;;;;;8.90;3.97;;;;;;;-5.33;91.82;95428.00;5032846;28;20242;-64
2021/12/23 06:45:15;;;;;;;6.03;4.00;;;;;;;-5.29;92.67;95417.22;5033343;28;20500;-64
2021/12/23 06:47:42;;;;;;;8.67;4.20;;;;;;;-5.28;91.74;95418.88;5032907;28;20186;-61
2021/12/23 06:50:09;;;;;;;10.83;4.40;;;;;;;-5.25;92.38;95418.00;5033139;28;20201;-64
2021/12/23 06:52:37;;;;;;;7.03;3.57;;;;;;;-5.10;92.15;95422.78;5031383;28;20606;-64
2021/12/23 06:55:03;;;;;;;10.03;4.00;;;;;;;-4.98;91.54;95431.69;5033007;28;20196;-65
2021/12/23 06:57:29;;;;;;;6.67;3.40;;;;;;;-5.05;90.46;95449.97;5032403;28;20684;-63
2021/12/23 06:59:55;;;;;;;4.97;3.03;;;;;;;-4.99;91.42;95435.03;5033038;28;20671;-64
2021/12/23 07:02:20;;;;;;;7.23;3.87;;;;;;;-4.80;91.45;95441.38;5032582;28;20189;-65
2021/12/23 07:04:46;;;;;;;7.40;5.27;;;;;;;-4.56;91.59;95433.59;5031180;28;20210;-64
2021/12/23 07:07:19;;;;;;;8.57;4.47;;;;;;;-4.62;91.33;95432.03;5032221;28;20198;-65
2021/12/23 07:09:45;;;;;;;6.67;4.23;;;;;;;-4.37;91.98;95427.53;5032569;28;20220;-65
2021/12/23 07:12:12;;;;;;;8.07;4.33;;;;;;;-4.21;90.24;95458.72;5032498;28;20213;-63
2021/12/23 07:14:38;;;;;;;8.93;4.73;;;;;;;-3.87;90.18;95468.91;5032705;28;20197;-64
2021/12/23 07:17:06;;;;;;;10.13;4.83;;;;;;;-3.79;89.30;95482.03;5032221;28;20711;-60
2021/12/23 07:19:32;;;;;;;5.27;3.27;;;;;;;-2.83;100.00;95350.13;5032747;28;20185;-63
2021/12/23 07:21:57;;;;;;;10.53;4.27;;;;;;;-2.90;91.31;95516.03;5030969;28;20274;-64
2021/12/23 07:24:23;;;;;;;11.87;4.13;;;;;;;-2.95;86.87;95532.69;5030842;28;20641;-64
2021/12/23 07:26:48;;;;;;;9.53;4.30;;;;;;;-2.97;88.00;95508.72;5031444;28;20687;-61
2021/12/23 07:29:14;;;;;;;9.27;4.83;;;;;;;-2.79;85.65;95535.75;5030614;28;20553;-64
2021/12/23 07:31:40;;;;;;;6.83;4.53;;;;;;;-2.76;86.45;95520.75;5031962;28;20208;-64
2021/12/23 07:34:05;;;;;;;8.60;4.83;;;;;;;-2.57;84.87;95546.91;5032233;28;20186;-64
2021/12/23 07:36:31;;;;;;;5.23;4.00;;;;;;;-2.48;84.66;95539.25;5032025;28;20215;-62
2021/12/23 07:38:57;;;;;;;9.47;4.33;;;;;;;-2.38;84.45;95543.19;5032034;28;20520;-60
2021/12/23 07:41:26;;;;;;;7.07;4.73;;;;;;;-2.34;83.98;95543.94;5031899;28;20285;-62
2021/12/23 07:44:00;;;;;;;7.83;4.47;;;;;;;-2.22;84.11;95539.50;5032047;28;20178;-63
2021/12/23 07:46:38;;;;;;;9.10;4.97;;;;;;;-2.02;81.24;95581.44;5032024;28;20202;-61
2021/12/23 07:49:05;;;;;;;8.37;4.70;;;;;;;-2.06;75.62;95570.69;5031890;28;20605;-60
2021/12/23 07:51:30;;;;;;;11.07;5.13;;;;;;;-1.85;75.23;95572.75;5031728;28;20203;-64
2021/12/23 07:53:56;;;;;;;10.73;5.20;;;;;;;-1.67;74.17;95570.66;5031668;28;20193;-60
2021/12/23 07:56:23;;;;;;;13.87;5.67;;;;;;;-1.44;73.67;95598.38;5031318;28;20223;-64
2021/12/23 07:58:49;;;;;;;9.20;6.00;;;;;;;-1.43;72.89;95598.34;5031636;28;20276;-65
2021/12/23 08:01:15;;;;;;;10.93;5.50;;;;;;;-1.35;72.84;95573.22;5031456;28;20673;-60
2021/12/23 08:03:40;;;;;;;12.90;6.30;;;;;;;-1.05;72.52;95550.84;5031896;28;20278;-63
2021/12/23 08:06:06;;;;;;;11.20;5.20;;;;;;;-0.75;72.58;95554.22;5031580;28;20283;-63
2021/12/23 08:08:31;;;;;;;9.17;5.90;;;;;;;-0.37;69.56;95606.44;5031486;28;20250;-64
2021/12/23 08:10:57;;;;;;;11.97;5.67;;;;;;;-0.04;67.07;95640.47;5030507;28;20208;-63
2021/12/23 08:13:29;;;;;;;9.63;5.90;;;;;;;0.07;65.97;95630.19;5031548;28;20565;-64
2021/12/23 08:15:57;;;;;;;12.93;6.90;;;;;;;0.25;65.93;95626.31;5031673;28;20220;-63
2021/12/23 08:18:30;;;;;;;11.43;6.93;;;;;;;0.61;64.09;95665.25;5031554;28;20179;-63
2021/12/23 08:20:56;;;;;;;10.33;6.23;;;;;;;0.83;63.56;95658.72;5031272;28;20244;-63
2021/12/23 08:23:22;;;;;;;18.10;7.53;;;;;;;0.79;63.62;95639.66;5030075;28;20188;-60
2021/12/23 08:25:47;;;;;;;16.53;8.43;;;;;;;1.00;63.58;95641.50;5031252;28;20206;-64
2021/12/23 08:28:13;;;;;;;13.43;7.83;;;;;;;1.19;61.71;95674.28;5031134;28;20521;-64
2021/12/23 08:30:40;;;;;;;14.60;7.07;;;;;;;1.22;61.32;95659.97;5029928;28;20209;-61
2021/12/23 08:33:07;;;;;;;16.57;8.97;;;;;;;1.34;60.56;95659.56;5031030;28;20176;-63
2021/12/23 08:35:33;;;;;;;17.00;7.90;;;;;;;1.56;61.48;95645.44;5031142;28;20210;-64
2021/12/23 08:37:59;;;;;;;15.27;8.40;;;;;;;1.89;59.77;95672.72;5034367;28;20226;-63
2021/12/23 08:40:27;;;;;;;17.37;8.43;;;;;;;2.13;59.46;95661.84;5035495;28;20210;-63
2021/12/23 08:42:54;;;;;;;21.60;10.17;;;;;;;2.47;58.14;95672.28;5033917;28;20567;-60
2021/12/23 08:45:21;;;;;;;26.63;13.43;;;;;;;2.70;57.02;95672.25;5033982;28;20208;-59
2021/12/23 08:47:48;;;;;;;34.23;16.60;;;;;;;2.81;57.62;95662.59;5035075;28;20178;-64
2021/12/23 08:50:15;;;;;;;32.10;16.20;;;;;;;2.98;57.33;95657.75;5033949;28;20189;-63
2021/12/23 08:52:41;;;;;;;32.63;15.97;;;;;;;3.15;56.90;95665.41;5035308;28;20171;-63
2021/12/23 08:55:08;;;;;;;43.10;17.77;;;;;;;3.29;56.96;95645.59;5034594;28;20202;-60
2021/12/23 08:57:34;;;;;;;35.43;18.83;;;;;;;3.31;56.81;95631.25;5034845;28;20202;-62
2021/12/23 08:59:59;;;;;;;34.13;16.83;;;;;;;3.46;55.54;95661.66;5035204;28;20185;-59
2021/12/23 09:02:25;;;;;;;32.07;17.13;;;;;;;3.57;54.12;95667.91;5034710;28;20225;-59
2021/12/23 09:04:51;;;;;;;28.87;15.03;;;;;;;3.64;53.97;95653.38;5035012;28;20181;-64
2021/12/23 09:07:17;;;;;;;26.00;14.33;;;;;;;3.52;53.40;95668.97;5032999;28;20296;-63
2021/12/23 09:09:46;;;;;;;26.47;14.87;;;;;;;2.91;54.11;95626.22;5016986;28;20193;-61
2021/12/23 09:12:12;;;;;;;30.97;13.93;;;;;;;2.92;55.01;95604.44;5034197;28;20252;-64
2021/12/23 09:14:37;;;;;;;27.40;13.63;;;;;;;3.17;54.14;95610.91;5034151;28;20194;-60
2021/12/23 09:17:03;;;;;;;36.03;15.57;;;;;;;3.48;55.51;95587.84;5033875;28;20275;-61
2021/12/23 09:19:29;;;;;;;34.63;17.17;;;;;;;3.67;53.36;95616.38;5034443;28;20198;-60
2021/12/23 09:21:56;;;;;;;34.50;15.30;;;;;;;3.85;52.67;95630.69;5034242;28;20209;-64
2021/12/23 09:24:22;;;;;;;28.77;14.23;;;;;;;4.02;52.68;95625.72;5034614;28;20692;-64
2021/12/23 09:26:58;;;;;;;34.00;15.30;;;;;;;4.29;53.47;95601.03;5034191;28;20208;-61
2021/12/23 09:34:46;;;;;;;24.17;14.10;;;;;;;4.54;49.54;95671.22;5033546;28;20197;-63
2021/12/23 09:37:12;;;;;;;28.33;15.20;;;;;;;4.69;48.77;95680.59;5032391;28;20218;-60
2021/12/23 09:39:38;;;;;;;24.40;13.57;;;;;;;4.59;49.11;95661.75;5032778;28;20650;-63
2021/12/23 09:42:04;;;;;;;22.03;12.30;;;;;;;4.60;49.86;95655.84;5034171;28;20209;-60
2021/12/23 09:44:31;;;;;;;21.80;12.70;;;;;;;4.76;50.27;95636.63;5034261;28;20186;-64
2021/12/23 09:47:02;;;;;;;22.37;12.00;;;;;;;4.63;48.94;95668.28;5033896;28;20203;-63
2021/12/23 09:49:29;;;;;;;24.63;11.97;;;;;;;4.06;50.42;95616.34;5033420;28;20281;-64
2021/12/23 09:51:56;;;;;;;21.50;11.03;;;;;;;3.98;50.61;95600.78;5041105;22;20234;-63
2021/12/23 09:54:25;;;;;;;18.20;11.47;;;;;;;4.28;50.56;95598.59;5033928;28;20178;-64
2021/12/23 09:56:52;;;;;;;22.67;13.47;;;;;;;4.19;50.27;95599.81;5033839;28;20245;-65
2021/12/23 09:59:20;;;;;;;23.97;12.00;;;;;;;4.61;49.30;95600.38;5033773;28;20640;-65
2021/12/23 10:01:46;;;;;;;29.17;13.30;;;;;;;4.84;48.18;95619.47;5033975;28;20206;-64
2021/12/23 10:04:12;;;;;;;20.57;10.97;;;;;;;4.68;48.68;95603.44;5032213;28;20244;-64
2021/12/23 10:06:38;;;;;;;24.90;13.47;;;;;;;4.83;48.78;95592.63;5033508;28;20210;-64
2021/12/23 10:09:04;;;;;;;17.00;9.40;;;;;;;6.44;100.00;95215.72;5032856;28;20700;-62
2021/12/23 10:12:35;;;;;;;19.27;10.77;;;;;;;8.59;100.00;95244.91;5032720;28;20241;-61
2021/12/23 10:31:02;;;;;;;27.07;13.97;;;;;;;7.14;53.46;95492.03;5032884;28;20658;-62
2021/12/23 10:33:42;;;;;;;27.77;13.20;;;;;;;6.42;50.52;95547.50;5032942;28;20697;-63
2021/12/23 10:38:38;;;;;;;20.43;11.00;;;;;;;5.90;53.41;95481.31;5032520;28;20178;-62
2021/12/23 10:41:12;;;;;;;18.27;10.00;;;;;;;5.53;49.51;95557.25;5032873;28;20296;-62
2021/12/23 10:43:45;;;;;;;18.63;10.07;;;;;;;5.41;52.29;95484.75;5032587;28;20169;-62
2021/12/23 10:46:39;;;;;;;17.37;9.73;;;;;;;5.35;51.66;95495.97;5031135;28;20215;-63
2021/12/23 10:52:09;;;;;;;15.87;9.53;;;;;;;5.95;58.86;95327.97;5032678;28;20234;-62
2021/12/23 11:00:20;;;;;;;14.00;7.93;;;;;;;5.94;48.47;95571.91;5031083;28;20193;-61
2021/12/23 11:06:25;;;;;;;18.70;10.17;;;;;;;6.26;55.72;95370.78;5032247;28;20263;-61
2021/12/23 11:09:15;;;;;;;17.37;9.23;;;;;;;6.41;56.29;95347.19;5032090;28;20342;-62
2021/12/23 11:42:03;;;;;;;14.27;8.33;;;;;;;6.35;46.84;95526.81;5004842;28;20307;-64
2021/12/23 11:44:31;;;;;;;18.43;9.17;;;;;;;5.88;50.04;95403.19;5003976;28;20222;-66
2021/12/23 11:47:06;;;;;;;17.00;8.97;;;;;;;5.81;49.66;95408.63;4987435;28;20237;-60
2021/12/23 11:49:35;;;;;;;19.70;9.37;;;;;;;5.71;49.38;95405.78;5003911;28;20560;-61
2021/12/23 11:52:01;;;;;;;14.57;8.70;;;;;;;5.66;49.59;95402.69;5003375;28;20214;-64
2021/12/23 11:54:36;;;;;;;15.30;8.97;;;;;;;5.69;48.68;95411.81;5005102;28;20193;-63
2021/12/23 11:57:16;;;;;;;18.83;9.70;;;;;;;5.48;50.93;95343.16;5004855;28;20576;-61
2021/12/23 11:59:50;;;;;;;16.30;9.00;;;;;;;5.44;50.83;95353.47;5004975;28;20646;-63
2021/12/23 12:02:21;;;;;;;15.67;8.70;;;;;;;5.47;50.47;95368.47;5004393;28;20228;-65
2021/12/23 12:04:48;;;;;;;16.83;8.40;;;;;;;5.41;49.56;95386.44;5004614;28;20206;-62
2021/12/23 12:07:21;;;;;;;18.07;8.87;;;;;;;5.48;52.48;95323.00;5004484;28;20198;-61
2021/12/23 12:09:55;;;;;;;16.13;9.03;;;;;;;5.50;49.20;95388.44;5004679;28;20268;-58
2021/12/23 12:12:21;;;;;;;16.90;8.87;;;;;;;5.61;51.65;95335.75;5002901;28;20316;-60
2021/12/23 12:14:47;;;;;;;15.70;9.80;;;;;;;5.79;52.00;95312.03;5004671;28;20719;-61
2021/12/23 12:17:24;;;;;;;13.53;8.43;;;;;;;6.07;50.37;95357.56;5004537;28;20593;-64
2021/12/23 12:19:58;;;;;;;16.90;8.60;;;;;;;6.13;48.09;95429.59;5004579;28;20209;-59
2021/12/23 12:22:59;;;;;;;13.47;8.27;;;;;;;5.79;48.50;95401.16;5004705;28;20209;-61
2021/12/23 12:25:24;;;;;;;15.73;8.80;;;;;;;6.05;52.56;95295.47;5004410;28;20204;-61
2021/12/23 12:27:56;;;;;;;16.37;8.77;;;;;;;6.44;50.44;95357.13;5003011;28;20182;-59
2021/12/23 12:30:41;;;;;;;22.77;9.93;;;;;;;6.85;49.18;95386.75;5004468;28;20190;-64
2021/12/23 12:33:33;;;;;;;16.23;8.63;;;;;;;7.08;49.45;95376.09;4995766;28;20178;-65
2021/12/23 12:36:01;;;;;;;18.67;8.90;;;;;;;7.31;49.76;95355.31;4990975;28;20234;-64
2021/12/23 12:38:33;;;;;;;16.87;8.10;;;;;;;7.49;47.22;95435.13;4990912;28;20271;-62
2021/12/23 12:41:19;;;;;;;16.10;7.80;;;;;;;7.39;45.63;95459.34;4989664;28;20264;-63
2021/12/23 12:43:50;;;;;;;13.57;8.03;;;;;;;7.24;47.53;95394.50;4991177;28;20244;-63
2021/12/23 12:46:33;;;;;;;14.63;7.70;;;;;;;7.18;47.63;95385.56;4991014;28;20238;-64
2021/12/23 12:48:59;;;;;;;19.10;8.47;;;;;;;7.00;46.28;95411.94;4991238;28;20624;-58
2021/12/23 12:51:31;;;;;;;14.50;7.77;;;;;;;7.13;47.71;95374.13;4990689;28;20210;-64
2021/12/23 12:54:04;;;;;;;18.83;8.93;;;;;;;7.26;44.95;95438.22;4989200;28;20199;-61
2021/12/23 12:56:51;;;;;;;10.63;7.13;;;;;;;7.46;46.17;95415.88;4990945;28;20600;-59